Time;durP1;ratioP1;P1;durP2;ratioP2;P2;SDS_P1;SDS_P2;PMS_P1;PMS_P2;Temp;Humidity;BMP_temperature;BMP_pressure;BME280_temperature;BME280_humidity;BME280_pressure;Samples;Min_cycle;Max_cycle;Signal;HPM_P1;HPM_P2
2023/01/27 00:01:00;;;;;;;30.83;13.83;;;;;;;3.83;73.04;101055.81;5031526;28;20239;-62
2023/01/27 00:03:28;;;;;;;30.10;14.77;;;;;;;3.88;72.96;101053.75;5032567;28;20252;-61
2023/01/27 00:06:00;;;;;;;33.70;14.23;;;;;;;3.95;72.35;101044.59;5031234;28;20261;-61
2023/01/27 00:08:28;;;;;;;32.20;14.67;;;;;;;3.97;72.18;101047.94;5032373;28;20230;-62
2023/01/27 00:13:39;;;;;;;32.57;15.10;;;;;;;4.03;71.61;101044.13;5034528;28;20221;-61
2023/01/27 00:16:07;;;;;;;28.90;14.17;;;;;;;4.02;72.02;101051.16;5031559;28;20211;-62
2023/01/27 00:18:35;;;;;;;33.70;14.40;;;;;;;4.02;71.64;101045.91;5031860;28;20204;-63
2023/01/27 00:26:35;;;;;;;32.53;14.37;;;;;;;3.93;72.56;101041.22;5035868;28;20259;-63
2023/01/27 00:29:03;;;;;;;29.17;13.47;;;;;;;3.93;72.86;101030.72;5034514;28;20269;-62
2023/01/27 00:34:16;;;;;;;36.03;14.23;;;;;;;4.01;72.69;101038.97;5033510;28;20295;-62
2023/01/27 00:36:45;;;;;;;30.37;13.10;;;;;;;4.08;72.67;101040.28;5034253;28;20210;-61
2023/01/27 00:39:13;;;;;;;29.00;13.00;;;;;;;4.08;72.75;101028.94;5035812;28;20215;-61
2023/01/27 00:41:41;;;;;;;28.40;13.40;;;;;;;4.11;72.37;101044.50;5036074;28;20237;-61
2023/01/27 00:44:11;;;;;;;33.87;15.30;;;;;;;4.08;71.75;101031.56;5035252;28;20278;-63
2023/01/27 00:46:40;;;;;;;29.87;13.97;;;;;;;4.04;72.24;101028.28;5035054;28;20332;-63
2023/01/27 00:49:08;;;;;;;29.67;13.67;;;;;;;4.09;72.24;101025.38;5033743;28;20336;-63
2023/01/27 00:51:36;;;;;;;31.07;13.60;;;;;;;4.12;72.02;101026.03;5034334;28;20215;-63
2023/01/27 00:54:08;;;;;;;30.30;13.70;;;;;;;4.14;71.88;101024.16;5037612;28;20303;-61
2023/01/27 00:56:37;;;;;;;27.83;13.27;;;;;;;4.12;72.25;101023.41;5032875;28;20288;-61
2023/01/27 00:59:05;;;;;;;33.33;15.63;;;;;;;4.03;72.50;101025.75;5031137;28;20300;-62
2023/01/27 01:01:33;;;;;;;31.83;14.20;;;;;;;4.00;72.85;101021.53;5032650;28;20237;-62
2023/01/27 01:04:02;;;;;;;30.53;13.50;;;;;;;3.98;72.88;101020.78;5030258;28;20235;-62
2023/01/27 01:06:29;;;;;;;34.93;14.67;;;;;;;4.07;72.94;101027.25;5030537;28;20214;-61
2023/01/27 01:08:57;;;;;;;33.63;14.37;;;;;;;4.05;73.02;101026.47;5034094;28;20222;-61
2023/01/27 01:11:27;;;;;;;33.87;14.63;;;;;;;4.08;72.90;101029.78;5035115;28;20209;-62
2023/01/27 01:13:55;;;;;;;39.33;15.70;;;;;;;4.10;72.21;101037.56;5036795;28;20216;-61
2023/01/27 01:16:24;;;;;;;33.17;13.63;;;;;;;4.04;72.79;101033.53;5029595;28;20804;-62
2023/01/27 01:18:53;;;;;;;36.23;15.37;;;;;;;3.95;73.32;101035.88;5028847;28;20301;-62
2023/01/27 01:21:21;;;;;;;37.77;16.43;;;;;;;3.83;74.28;101047.94;5031476;28;20206;-62
2023/01/27 01:23:49;;;;;;;38.37;16.03;;;;;;;3.85;74.55;101048.69;5033480;28;20275;-63
2023/01/27 01:26:17;;;;;;;33.47;16.00;;;;;;;3.89;74.72;101038.84;5032945;28;20210;-62
2023/01/27 01:28:47;;;;;;;34.53;13.97;;;;;;;3.89;74.54;101039.69;5034538;28;21010;-63
2023/01/27 01:31:17;;;;;;;39.37;14.97;;;;;;;3.90;74.70;101041.38;5031747;28;20912;-62
2023/01/27 01:33:45;;;;;;;35.27;16.30;;;;;;;3.95;74.53;101039.34;5034639;28;20216;-62
2023/01/27 01:36:15;;;;;;;36.33;14.87;;;;;;;4.02;73.89;101039.81;5032770;28;20346;-63
2023/01/27 01:38:43;;;;;;;31.33;14.47;;;;;;;4.09;73.51;101039.34;5032351;28;20209;-62
2023/01/27 01:41:13;;;;;;;33.30;14.80;;;;;;;4.15;72.93;101044.22;5032796;28;20225;-62
2023/01/27 01:43:41;;;;;;;32.73;14.63;;;;;;;4.11;73.22;101042.72;5030867;28;20737;-61
2023/01/27 01:46:11;;;;;;;35.07;15.60;;;;;;;4.08;73.53;101037.66;5031918;28;20992;-63
2023/01/27 01:48:43;;;;;;;32.67;15.23;;;;;;;4.10;73.72;101043.66;5031271;28;20271;-62
2023/01/27 01:51:14;;;;;;;36.63;14.83;;;;;;;4.18;73.35;101034.47;5031129;28;21896;-62
2023/01/27 01:53:50;;;;;;;35.20;14.83;;;;;;;4.14;73.34;101045.16;5033258;28;20313;-62
2023/01/27 01:56:23;;;;;;;36.63;15.10;;;;;;;4.09;73.64;101039.34;5032644;28;20214;-62
2023/01/27 01:58:52;;;;;;;37.40;15.93;;;;;;;4.09;73.90;101034.09;5031810;28;20588;-62
2023/01/27 02:01:21;;;;;;;34.37;15.13;;;;;;;4.13;73.48;101043.44;5030433;28;20222;-63
2023/01/27 02:03:53;;;;;;;38.00;15.43;;;;;;;4.14;73.85;101037.28;5031964;28;20226;-63
2023/01/27 02:06:21;;;;;;;33.93;15.07;;;;;;;4.20;73.69;101037.84;5033300;28;20649;-63
2023/01/27 02:08:50;;;;;;;35.47;15.13;;;;;;;4.22;73.74;101035.97;5029779;28;20219;-61
2023/01/27 02:11:18;;;;;;;35.23;16.17;;;;;;;4.23;73.78;101032.38;5033786;28;20238;-62
2023/01/27 02:13:47;;;;;;;30.30;14.53;;;;;;;4.26;73.48;101032.22;5030543;28;20268;-63
2023/01/27 02:16:15;;;;;;;34.20;14.53;;;;;;;4.25;73.56;101025.28;5032014;28;20665;-63
2023/01/27 02:18:50;;;;;;;34.43;14.33;;;;;;;4.32;73.18;101031.81;5030074;28;20798;-63
2023/01/27 02:21:18;;;;;;;35.73;15.80;;;;;;;4.29;73.48;101027.63;5028362;28;20248;-64
2023/01/27 02:23:55;;;;;;;34.47;15.07;;;;;;;4.28;73.78;101027.72;5035787;28;20247;-61
2023/01/27 02:26:28;;;;;;;35.20;15.27;;;;;;;4.28;73.78;101025.09;5033362;28;20221;-61
2023/01/27 02:28:58;;;;;;;33.37;13.37;;;;;;;4.29;73.96;101026.78;5031794;28;20214;-61
2023/01/27 02:31:26;;;;;;;32.70;14.33;;;;;;;4.29;73.77;101022.38;5037049;28;20242;-61
2023/01/27 02:34:04;;;;;;;35.63;14.83;;;;;;;4.32;73.84;101022.16;5034629;28;20593;-61
2023/01/27 02:36:35;;;;;;;30.93;13.97;;;;;;;4.36;73.60;101017.59;5039452;28;20677;-61
2023/01/27 02:39:06;;;;;;;30.83;12.90;;;;;;;4.41;73.49;101015.50;5038350;28;20209;-61
2023/01/27 02:41:40;;;;;;;27.87;12.57;;;;;;;4.41;73.06;101028.63;5038797;28;20345;-60
2023/01/27 02:44:09;;;;;;;32.40;12.80;;;;;;;4.40;73.07;101024.31;5038409;28;20426;-61
2023/01/27 02:46:37;;;;;;;35.03;14.73;;;;;;;4.39;73.06;101027.91;5038301;28;20211;-60
2023/01/27 02:49:05;;;;;;;27.17;12.10;;;;;;;4.40;73.29;101025.16;5032962;28;20208;-60
2023/01/27 02:51:33;;;;;;;31.97;13.07;;;;;;;4.39;73.28;101023.50;5038237;28;20237;-62
2023/01/27 02:54:00;;;;;;;28.70;12.43;;;;;;;4.42;73.47;101022.44;5036012;28;20207;-61
2023/01/27 02:56:28;;;;;;;27.57;13.47;;;;;;;4.43;73.33;101029.38;5030952;28;20226;-61
2023/01/27 02:58:57;;;;;;;32.17;13.80;;;;;;;4.46;73.47;101035.31;5034692;28;20297;-61
2023/01/27 03:01:26;;;;;;;29.67;13.50;;;;;;;4.48;73.10;101040.47;5033951;28;20257;-61
2023/01/27 03:03:54;;;;;;;28.37;12.77;;;;;;;4.42;73.17;101033.78;5034737;28;20505;-61
2023/01/27 03:06:22;;;;;;;25.60;12.60;;;;;;;4.39;73.39;101041.88;5032836;28;20225;-61
2023/01/27 03:08:49;;;;;;;27.03;13.07;;;;;;;4.40;73.74;101040.06;5033792;28;20215;-60
2023/01/27 03:12:18;;;;;;;31.57;12.73;;;;;;;4.44;73.64;101041.59;5036448;28;20226;-61
2023/01/27 03:14:08;;;;;;;25.53;12.37;;;;;;;4.43;73.46;101039.91;5033992;28;20344;-61
2023/01/27 03:19:21;;;;;;;28.60;13.67;;;;;;;4.44;73.25;101044.22;5036577;28;20306;-61
2023/01/27 03:22:00;;;;;;;31.43;13.83;;;;;;;4.49;73.00;101047.38;5035046;28;20702;-61
2023/01/27 03:24:28;;;;;;;28.13;13.23;;;;;;;4.48;72.93;101045.72;5035073;28;20218;-60
2023/01/27 03:26:56;;;;;;;33.13;14.90;;;;;;;4.49;73.09;101047.38;5033340;28;20228;-61
2023/01/27 03:32:10;;;;;;;28.70;13.63;;;;;;;4.47;73.21;101041.41;5034109;28;20242;-59
2023/01/27 03:34:38;;;;;;;27.83;13.43;;;;;;;4.44;73.54;101036.34;5035462;28;20219;-62
2023/01/27 03:48:08;;;;;;;31.13;12.50;;;;;;;4.35;74.12;101040.38;5034460;28;20301;-60
2023/01/27 03:50:37;;;;;;;33.63;13.53;;;;;;;4.40;74.00;101042.69;5031854;28;20243;-61
2023/01/27 03:53:05;;;;;;;31.40;13.30;;;;;;;4.38;74.32;101045.44;5033887;28;20805;-60
2023/01/27 03:55:35;;;;;;;34.00;13.30;;;;;;;4.48;73.75;101054.44;5037508;28;20835;-60
2023/01/27 03:58:16;;;;;;;31.33;13.37;;;;;;;4.44;73.85;101049.47;5033631;28;20223;-61
2023/01/27 04:00:47;;;;;;;29.33;14.63;;;;;;;4.47;73.76;101047.50;5038362;28;20874;-62
2023/01/27 04:08:49;;;;;;;32.43;13.43;;;;;;;4.59;73.13;101058.16;5033709;28;20206;-62
2023/01/27 04:14:04;;;;;;;29.63;13.13;;;;;;;4.54;73.88;101048.81;5040261;28;20209;-61
2023/01/27 04:16:35;;;;;;;27.63;11.83;;;;;;;4.57;74.00;101058.28;5040725;28;20293;-61
2023/01/27 04:19:04;;;;;;;31.57;14.13;;;;;;;4.53;74.00;101065.50;5038347;28;20270;-62
2023/01/27 04:21:33;;;;;;;31.87;13.10;;;;;;;4.55;74.11;101054.91;5036441;28;20306;-61
2023/01/27 04:24:01;;;;;;;32.80;13.70;;;;;;;4.56;73.68;101063.63;5039490;28;20251;-62
2023/01/27 04:26:32;;;;;;;28.10;13.47;;;;;;;4.49;74.21;101055.25;5035999;28;20614;-61
2023/01/27 04:29:00;;;;;;;30.93;12.60;;;;;;;4.51;74.31;101069.16;5036002;28;21090;-60
2023/01/27 04:31:28;;;;;;;28.97;13.63;;;;;;;4.50;74.47;101051.69;5036034;28;20242;-62
2023/01/27 04:33:57;;;;;;;35.37;14.67;;;;;;;4.55;74.43;101062.78;5034896;28;20741;-61
2023/01/27 04:36:25;;;;;;;33.40;14.73;;;;;;;4.57;74.42;101053.03;5033977;28;20215;-62
2023/01/27 04:38:52;;;;;;;36.97;14.80;;;;;;;4.57;73.90;101063.53;5032538;28;20258;-61
2023/01/27 04:41:20;;;;;;;33.50;15.97;;;;;;;4.60;74.01;101073.84;5036290;28;20215;-62
2023/01/27 04:43:48;;;;;;;34.10;14.40;;;;;;;4.57;74.07;101063.53;5035679;28;20580;-62
2023/01/27 04:46:16;;;;;;;29.70;13.40;;;;;;;4.55;74.06;101062.78;5032621;28;20241;-62
2023/01/27 04:48:43;;;;;;;29.77;13.50;;;;;;;4.57;74.19;101062.69;5037395;28;20734;-62
2023/01/27 04:51:12;;;;;;;31.20;13.10;;;;;;;4.55;74.26;101065.41;5032772;28;20326;-62
2023/01/27 04:53:41;;;;;;;30.37;13.73;;;;;;;4.56;74.63;101067.09;5030149;28;20222;-62
2023/01/27 04:56:21;;;;;;;36.27;15.03;;;;;;;4.56;74.30;101067.09;5034319;28;20230;-62
2023/01/27 04:58:48;;;;;;;32.70;14.00;;;;;;;4.57;74.14;101079.31;5031058;28;22101;-61
2023/01/27 05:01:16;;;;;;;34.63;14.43;;;;;;;4.51;74.25;101069.16;5029070;28;20228;-61
2023/01/27 05:03:44;;;;;;;30.40;13.60;;;;;;;4.51;74.69;101069.16;5032437;28;20210;-61
2023/01/27 05:06:14;;;;;;;29.20;13.53;;;;;;;4.52;74.81;101073.47;5029951;28;20988;-62
2023/01/27 05:08:41;;;;;;;29.43;12.47;;;;;;;4.53;74.68;101075.16;5030215;28;20319;-62
2023/01/27 05:11:10;;;;;;;29.50;12.93;;;;;;;4.55;74.73;101073.28;5032790;28;20212;-62
2023/01/27 05:13:39;;;;;;;31.83;11.83;;;;;;;4.55;74.58;101078.53;5030448;28;20216;-61
2023/01/27 05:16:10;;;;;;;28.23;12.40;;;;;;;4.57;74.62;101079.31;5033813;28;20305;-62
2023/01/27 05:18:39;;;;;;;28.47;12.47;;;;;;;4.65;74.11;101077.03;5035542;28;20211;-62
2023/01/27 05:21:07;;;;;;;28.53;11.33;;;;;;;4.67;73.71;101083.03;5036888;28;20310;-61
2023/01/27 05:23:37;;;;;;;27.67;12.00;;;;;;;4.65;73.89;101074.41;5034470;28;20218;-63
2023/01/27 05:26:08;;;;;;;24.77;12.07;;;;;;;4.70;73.73;101074.09;5037452;28;20245;-62
2023/01/27 05:28:36;;;;;;;26.57;12.00;;;;;;;4.62;73.67;101079.84;5031393;28;20218;-62
2023/01/27 05:31:06;;;;;;;22.67;10.37;;;;;;;4.60;73.96;101073.84;5032921;28;20246;-63
2023/01/27 05:33:34;;;;;;;26.97;11.20;;;;;;;4.63;73.80;101083.31;5031013;28;20596;-61
2023/01/27 05:36:03;;;;;;;25.53;11.40;;;;;;;4.58;73.99;101086.22;5031696;28;20230;-61
2023/01/27 05:38:31;;;;;;;26.70;11.47;;;;;;;4.60;74.45;101080.88;5032049;28;20214;-63
2023/01/27 05:41:02;;;;;;;22.87;11.90;;;;;;;4.61;74.54;101093.91;5034587;28;20260;-62
2023/01/27 05:43:32;;;;;;;28.63;11.60;;;;;;;4.64;74.51;101090.25;5032467;28;20219;-62
2023/01/27 05:46:05;;;;;;;26.30;11.53;;;;;;;4.65;74.42;101092.81;5033821;28;20208;-62
2023/01/27 05:48:35;;;;;;;24.20;11.17;;;;;;;4.70;74.13;101106.47;5030696;28;20634;-61
2023/01/27 05:51:03;;;;;;;25.03;12.13;;;;;;;4.68;74.04;101097.84;5032433;28;20219;-62
2023/01/27 05:53:31;;;;;;;25.27;11.27;;;;;;;4.68;74.17;101097.84;5031117;28;21000;-63
2023/01/27 05:56:00;;;;;;;26.00;11.90;;;;;;;4.73;74.03;101105.47;5031796;28;20218;-62
2023/01/27 05:58:28;;;;;;;30.20;11.17;;;;;;;4.74;74.18;101108.00;5029548;28;20325;-62
2023/01/27 06:00:56;;;;;;;27.87;12.37;;;;;;;4.73;74.08;101103.69;5029445;28;20578;-62
2023/01/27 06:03:23;;;;;;;26.53;12.60;;;;;;;4.74;74.21;101107.16;5033629;28;20211;-62
2023/01/27 06:05:53;;;;;;;27.10;11.70;;;;;;;4.68;74.23;101108.34;5035857;28;20215;-63
2023/01/27 06:08:22;;;;;;;27.80;12.23;;;;;;;4.68;74.25;101113.59;5034793;28;21227;-62
2023/01/27 06:10:50;;;;;;;25.40;11.47;;;;;;;4.70;74.45;101111.75;5031749;28;20207;-62
2023/01/27 06:13:21;;;;;;;26.93;12.87;;;;;;;4.71;74.26;101110.81;5036510;28;20238;-62
2023/01/27 06:15:50;;;;;;;23.37;11.40;;;;;;;4.70;74.17;101109.09;5034827;28;20318;-62
2023/01/27 06:18:19;;;;;;;25.30;10.93;;;;;;;4.75;74.02;101114.91;5030447;28;20226;-63
2023/01/27 06:20:47;;;;;;;27.20;11.07;;;;;;;4.78;73.70;101112.09;5037025;28;20211;-62
2023/01/27 06:23:16;;;;;;;25.83;11.70;;;;;;;4.79;73.58;101116.41;5039532;28;20247;-63
2023/01/27 06:25:46;;;;;;;25.83;11.47;;;;;;;4.77;73.54;101113.03;5038802;28;20298;-63
2023/01/27 06:28:15;;;;;;;22.73;10.83;;;;;;;4.77;73.65;101109.56;5036629;28;20221;-62
2023/01/27 06:30:57;;;;;;;24.57;10.57;;;;;;;4.74;73.81;101108.00;5036947;28;20250;-63
2023/01/27 06:33:24;;;;;;;24.17;10.87;;;;;;;4.75;73.80;101112.28;5037255;28;20304;-63
2023/01/27 06:36:01;;;;;;;23.33;10.53;;;;;;;4.76;73.75;101111.34;5036788;28;20307;-60
2023/01/27 06:38:29;;;;;;;23.20;10.33;;;;;;;4.79;73.67;101105.06;5036287;28;20214;-62
2023/01/27 06:40:56;;;;;;;23.80;10.97;;;;;;;4.78;73.47;101108.63;5038471;28;20214;-62
2023/01/27 06:43:24;;;;;;;23.10;10.30;;;;;;;4.77;73.60;101113.03;5038060;28;20284;-63
2023/01/27 06:45:52;;;;;;;19.80;9.80;;;;;;;4.77;73.45;101113.03;5038837;28;20215;-62
2023/01/27 06:48:21;;;;;;;21.17;9.63;;;;;;;4.77;73.72;101120.91;5035548;28;20883;-62
2023/01/27 06:50:49;;;;;;;18.63;9.63;;;;;;;4.77;73.57;101133.22;5037358;28;20219;-63
2023/01/27 06:53:17;;;;;;;22.50;10.17;;;;;;;4.79;73.46;101128.72;5035398;28;20707;-62
2023/01/27 06:55:45;;;;;;;20.70;9.80;;;;;;;4.83;73.24;101128.44;5037227;28;20215;-62
2023/01/27 06:58:14;;;;;;;20.63;10.63;;;;;;;4.90;72.85;101123.63;5036212;28;20631;-63
2023/01/27 07:00:42;;;;;;;20.37;9.57;;;;;;;4.91;72.70;101128.81;5037684;28;20238;-61
2023/01/27 07:03:12;;;;;;;19.60;9.63;;;;;;;4.91;72.33;101134.06;5038345;28;20207;-69
2023/01/27 07:05:41;;;;;;;24.10;11.87;;;;;;;4.83;71.95;101130.22;5036505;28;20207;-69
2023/01/27 07:08:09;;;;;;;18.67;8.60;;;;;;;4.81;71.89;101132.09;5038597;28;20226;-68
2023/01/27 07:10:38;;;;;;;20.13;9.07;;;;;;;4.80;71.67;101144.38;5036244;28;20212;-68
2023/01/27 07:13:07;;;;;;;19.93;9.10;;;;;;;4.83;71.78;101154.72;5035423;28;21709;-70
2023/01/27 07:15:35;;;;;;;23.17;8.90;;;;;;;4.87;72.06;101163.25;5038016;28;20673;-70
2023/01/27 07:18:04;;;;;;;19.53;8.30;;;;;;;4.89;72.09;101154.34;5035864;28;20217;-68
2023/01/27 07:20:32;;;;;;;20.47;9.40;;;;;;;4.95;72.04;101149.63;5040349;28;20216;-69
2023/01/27 07:23:03;;;;;;;20.83;9.53;;;;;;;4.93;72.14;101147.94;5038876;28;20235;-68
2023/01/27 07:25:32;;;;;;;19.20;8.90;;;;;;;4.88;72.45;101151.78;5035431;28;20208;-71
2023/01/27 07:28:01;;;;;;;23.20;9.60;;;;;;;4.83;72.48;101159.97;5034706;28;20735;-70
2023/01/27 07:30:30;;;;;;;19.20;8.23;;;;;;;4.81;72.63;101161.00;5036283;28;20248;-71
2023/01/27 07:33:03;;;;;;;19.83;8.73;;;;;;;4.82;72.71;101158.28;5037382;28;20336;-71
2023/01/27 07:35:31;;;;;;;20.90;8.93;;;;;;;4.80;72.08;101173.28;5037608;28;20226;-70
2023/01/27 07:37:59;;;;;;;17.30;7.93;;;;;;;4.77;72.36;101170.84;5040107;28;20305;-70
2023/01/27 07:40:28;;;;;;;18.57;8.93;;;;;;;4.79;72.36;101174.22;5038726;28;20630;-70
2023/01/27 07:42:59;;;;;;;16.93;7.93;;;;;;;4.85;72.06;101178.25;5035621;28;20283;-70
2023/01/27 07:45:27;;;;;;;17.97;8.43;;;;;;;4.79;72.04;101179.47;5037044;28;20214;-70
2023/01/27 07:48:00;;;;;;;17.30;8.30;;;;;;;4.85;71.86;101179.09;5030232;28;20234;-70
2023/01/27 07:50:28;;;;;;;16.77;8.00;;;;;;;4.86;71.58;101182.56;5036354;28;20680;-71
2023/01/27 07:52:58;;;;;;;16.10;7.93;;;;;;;4.91;71.58;101189.25;5036663;28;20242;-69
2023/01/27 07:55:28;;;;;;;15.37;7.87;;;;;;;4.89;71.57;101191.13;5034833;28;20219;-70
2023/01/27 07:57:56;;;;;;;16.57;8.00;;;;;;;4.92;71.28;101193.53;5033587;28;20223;-69
2023/01/27 08:00:24;;;;;;;16.03;7.40;;;;;;;5.01;71.03;101192.16;5033361;28;20935;-70
2023/01/27 08:02:52;;;;;;;17.30;8.57;;;;;;;5.07;70.98;101193.56;5034993;28;20259;-69
2023/01/27 08:05:21;;;;;;;15.50;7.90;;;;;;;5.08;70.69;101197.88;5036937;28;20246;-69
2023/01/27 08:07:50;;;;;;;20.33;7.33;;;;;;;5.10;70.46;101201.25;5034799;28;20231;-68
2023/01/27 08:10:18;;;;;;;15.23;7.93;;;;;;;5.15;70.14;101207.06;5036501;28;21078;-70
2023/01/27 08:12:48;;;;;;;13.50;7.20;;;;;;;5.15;69.86;101202.66;5035515;28;20547;-68
2023/01/27 08:15:16;;;;;;;17.87;7.83;;;;;;;5.27;70.21;101206.31;5032334;28;20219;-70
2023/01/27 08:17:53;;;;;;;15.00;7.70;;;;;;;5.33;69.67;101208.53;5034296;28;20270;-67
2023/01/27 08:20:21;;;;;;;16.97;7.93;;;;;;;5.39;69.38;101209.94;5034278;28;20207;-68
2023/01/27 08:22:49;;;;;;;12.80;7.13;;;;;;;5.35;69.16;101204.03;5038726;28;20211;-69
2023/01/27 08:25:17;;;;;;;17.70;7.37;;;;;;;5.37;68.80;101204.75;5035478;28;20217;-69
2023/01/27 08:27:44;;;;;;;15.13;7.30;;;;;;;5.30;68.92;101209.56;5035461;28;20226;-70
2023/01/27 08:30:14;;;;;;;16.17;7.23;;;;;;;5.32;69.10;101201.59;5035659;28;20216;-70
2023/01/27 08:32:42;;;;;;;13.33;6.33;;;;;;;5.36;67.94;101199.63;5035115;28;20262;-70
2023/01/27 08:35:10;;;;;;;11.10;5.70;;;;;;;5.36;67.68;101203.09;5034785;28;20232;-69
2023/01/27 08:37:38;;;;;;;15.27;7.70;;;;;;;5.37;68.05;101202.13;5036161;28;20216;-69
2023/01/27 08:40:07;;;;;;;13.93;7.33;;;;;;;5.49;67.85;101197.88;5038439;28;20211;-69
2023/01/27 08:42:34;;;;;;;13.77;6.73;;;;;;;5.59;67.63;101206.88;5037256;28;20209;-69
2023/01/27 08:45:02;;;;;;;13.30;6.43;;;;;;;5.65;67.26;101202.06;5042546;28;20856;-68
2023/01/27 08:47:31;;;;;;;13.40;7.20;;;;;;;5.67;66.60;101215.13;5036563;28;21097;-69
2023/01/27 08:49:59;;;;;;;14.50;7.10;;;;;;;5.61;66.82;101216.38;5037009;28;20208;-70
2023/01/27 08:52:29;;;;;;;12.73;6.50;;;;;;;5.59;66.71;101223.53;5036285;28;20700;-69
2023/01/27 08:54:57;;;;;;;14.30;7.00;;;;;;;5.57;66.94;101222.75;5034116;28;20229;-69
2023/01/27 08:57:25;;;;;;;12.13;6.20;;;;;;;5.54;66.90;101225.59;5035498;28;20810;-68
2023/01/27 08:59:53;;;;;;;11.30;6.43;;;;;;;5.47;66.45;101224.28;5034716;28;20303;-70
2023/01/27 09:02:23;;;;;;;12.97;6.00;;;;;;;5.48;66.83;101231.25;5037280;28;20260;-69
2023/01/27 09:04:52;;;;;;;14.67;6.53;;;;;;;5.51;66.57;101220.53;5038093;28;20584;-69
2023/01/27 09:07:20;;;;;;;10.77;5.97;;;;;;;5.45;66.31;101230.63;5034270;28;20281;-70
2023/01/27 09:09:48;;;;;;;12.93;6.20;;;;;;;5.45;66.83;101231.47;5036182;28;20716;-69
2023/01/27 09:12:22;;;;;;;12.30;5.70;;;;;;;5.49;67.01;101230.31;5035167;28;20257;-69
2023/01/27 09:14:50;;;;;;;11.07;6.13;;;;;;;5.43;67.10;101238.59;5032616;28;20252;-71
2023/01/27 09:17:18;;;;;;;13.47;6.43;;;;;;;5.49;67.12;101238.19;5032711;28;20217;-70
2023/01/27 09:19:46;;;;;;;13.40;6.93;;;;;;;5.44;66.90;101242.06;5037183;28;20226;-71
2023/01/27 09:22:15;;;;;;;15.13;7.23;;;;;;;5.44;67.30;101242.91;5029811;28;20217;-70
2023/01/27 09:24:43;;;;;;;11.73;6.90;;;;;;;5.42;67.11;101244.78;5035585;28;20233;-71
2023/01/27 09:27:11;;;;;;;12.40;6.40;;;;;;;5.39;67.58;101239.72;5032521;28;20207;-69
2023/01/27 09:29:38;;;;;;;14.10;7.30;;;;;;;5.37;67.17;101248.63;5033813;28;20676;-69
2023/01/27 09:32:07;;;;;;;14.10;6.23;;;;;;;5.32;67.14;101250.72;5035813;28;20342;-69
2023/01/27 09:34:35;;;;;;;12.73;6.40;;;;;;;5.30;67.31;101248.19;5034655;28;20246;-70
2023/01/27 09:37:07;;;;;;;13.70;7.00;;;;;;;5.31;67.48;101255.13;5034421;28;20204;-69
2023/01/27 09:39:40;;;;;;;14.87;6.97;;;;;;;5.35;67.49;101254.00;5032685;28;20196;-69
2023/01/27 09:42:42;;;;;;;14.50;7.17;;;;;;;5.33;67.56;101252.41;5035871;28;20215;-69
2023/01/27 09:45:26;;;;;;;11.80;6.27;;;;;;;5.31;67.62;101265.66;5038196;28;20254;-72
2023/01/27 09:48:13;;;;;;;12.20;6.40;;;;;;;5.26;67.88;101263.31;5033766;28;20875;-70
2023/01/27 09:50:44;;;;;;;14.23;6.90;;;;;;;5.32;67.85;101262.09;5033877;28;20220;-68
2023/01/27 09:53:49;;;;;;;13.50;7.37;;;;;;;5.35;67.86;101264.53;5034065;28;20208;-74
2023/01/27 09:56:28;;;;;;;13.50;6.57;;;;;;;5.39;67.70;101262.53;5041960;28;20208;-70
2023/01/27 09:59:08;;;;;;;16.00;5.70;;;;;;;5.40;67.52;101262.44;5037648;28;20207;-70
2023/01/27 10:01:48;;;;;;;11.23;5.77;;;;;;;5.32;67.77;101261.25;5035745;28;20235;-69
2023/01/27 10:04:44;;;;;;;12.77;6.23;;;;;;;5.35;67.96;101261.06;5034526;28;20204;-70
2023/01/27 10:07:27;;;;;;;13.00;5.70;;;;;;;5.45;67.86;101263.03;5026707;28;20223;-69
2023/01/27 10:10:07;;;;;;;11.03;5.67;;;;;;;5.54;67.76;101262.41;5034027;28;20287;-72
2023/01/27 10:12:49;;;;;;;10.47;5.50;;;;;;;5.61;67.42;101263.75;5034498;28;20219;-70
2023/01/27 10:15:32;;;;;;;12.13;5.63;;;;;;;5.64;67.59;101257.41;5034881;28;20226;-73
2023/01/27 10:18:09;;;;;;;10.73;5.40;;;;;;;5.66;67.40;101258.19;5035848;28;20213;-74
2023/01/27 10:20:45;;;;;;;11.40;6.23;;;;;;;5.67;67.60;101258.09;5039406;28;20235;-72
2023/01/27 10:23:28;;;;;;;10.80;5.77;;;;;;;5.67;67.92;101250.19;5037611;28;20223;-71
2023/01/27 10:26:08;;;;;;;13.10;6.73;;;;;;;5.73;68.09;101253.34;5035686;28;20219;-72
2023/01/27 10:28:41;;;;;;;12.13;7.23;;;;;;;5.75;68.23;101254.09;5038358;28;20224;-71
2023/01/27 10:31:14;;;;;;;13.40;7.67;;;;;;;5.75;68.71;101248.84;5037147;28;20235;-72
2023/01/27 10:33:51;;;;;;;16.97;7.60;;;;;;;5.82;69.00;101244.88;5033530;28;20208;-70
2023/01/27 10:36:26;;;;;;;13.53;7.67;;;;;;;5.85;69.08;101248.16;5034963;28;20246;-70
2023/01/27 10:39:07;;;;;;;16.43;8.63;;;;;;;5.88;69.17;101237.47;5036165;28;20219;-67
2023/01/27 10:41:46;;;;;;;16.40;8.27;;;;;;;5.94;69.24;101241.50;5034239;28;20204;-67
2023/01/27 10:44:35;;;;;;;18.73;8.17;;;;;;;6.01;69.08;101240.13;5034317;28;20212;-67
2023/01/27 10:47:11;;;;;;;19.40;8.37;;;;;;;6.07;69.13;101238.91;5032524;28;20582;-69
2023/01/27 10:49:43;;;;;;;17.10;9.07;;;;;;;6.08;68.70;101243.22;5031379;28;20223;-69
2023/01/27 10:52:16;;;;;;;17.53;9.57;;;;;;;6.13;69.21;101234.09;5033870;28;20300;-66
2023/01/27 10:54:51;;;;;;;19.67;10.37;;;;;;;6.17;69.01;101246.09;5039873;28;20702;-67
2023/01/27 10:57:25;;;;;;;17.67;9.20;;;;;;;6.23;68.28;101229.06;5031268;28;20223;-66
2023/01/27 11:00:01;;;;;;;16.97;9.60;;;;;;;6.27;68.53;101233.16;5035949;28;20213;-66
2023/01/27 11:02:58;;;;;;;15.73;9.10;;;;;;;6.29;68.41;101221.56;5039968;28;20916;-63
2023/01/27 11:05:31;;;;;;;15.00;8.83;;;;;;;6.36;68.05;101224.63;5040421;28;20208;-63
2023/01/27 11:08:02;;;;;;;14.60;8.37;;;;;;;6.42;67.62;101226.84;5040743;28;20316;-62
2023/01/27 11:10:35;;;;;;;15.57;8.33;;;;;;;6.42;67.68;101219.78;5038974;28;20224;-69
2023/01/27 11:13:05;;;;;;;17.10;8.93;;;;;;;6.46;68.01;101219.59;5041141;28;20295;-68
2023/01/27 11:15:35;;;;;;;14.80;8.63;;;;;;;6.48;67.56;101220.34;5038558;28;20229;-67
2023/01/27 11:18:10;;;;;;;15.87;8.70;;;;;;;6.36;67.90;101230.75;5037642;28;20209;-67
2023/01/27 11:20:41;;;;;;;14.30;8.30;;;;;;;6.26;68.11;101228.81;5038837;28;20220;-67
2023/01/27 11:23:16;;;;;;;13.77;8.00;;;;;;;6.08;69.07;101228.25;5039402;28;20243;-69
2023/01/27 11:25:49;;;;;;;13.57;7.87;;;;;;;6.02;69.44;101221.63;5040905;28;20230;-67
2023/01/27 11:28:29;;;;;;;14.27;7.87;;;;;;;6.16;68.57;101225.97;5037796;28;20852;-67
2023/01/27 11:31:07;;;;;;;14.17;8.17;;;;;;;6.23;68.36;101224.63;5038965;28;20255;-66
2023/01/27 11:33:46;;;;;;;13.17;7.20;;;;;;;6.32;68.25;101218.75;5037305;28;20277;-65
2023/01/27 11:36:14;;;;;;;15.00;7.60;;;;;;;6.43;68.59;101213.56;5036851;28;20263;-69
2023/01/27 11:38:42;;;;;;;13.17;7.53;;;;;;;6.46;67.86;101216.97;5037561;28;20201;-67
2023/01/27 11:41:10;;;;;;;11.07;6.83;;;;;;;6.43;67.57;101221.47;5039700;28;20436;-67
2023/01/27 11:43:39;;;;;;;13.10;7.10;;;;;;;6.54;67.28;101222.56;5039039;28;20211;-67
2023/01/27 11:46:18;;;;;;;15.60;8.67;;;;;;;6.52;67.04;101219.16;5039248;28;20311;-68
2023/01/27 11:48:50;;;;;;;12.80;7.27;;;;;;;6.47;67.29;101222.13;5037611;28;20668;-68
2023/01/27 11:51:21;;;;;;;12.17;6.80;;;;;;;6.50;67.26;101211.41;5038213;28;20281;-68
2023/01/27 11:54:04;;;;;;;10.27;5.83;;;;;;;6.41;67.12;101218.13;5039281;28;20209;-66
2023/01/27 11:56:35;;;;;;;12.87;6.20;;;;;;;6.41;66.60;101212.88;5036894;28;20219;-66
2023/01/27 11:59:08;;;;;;;10.57;6.43;;;;;;;6.29;67.09;101208.41;5039842;28;20269;-67
2023/01/27 12:01:49;;;;;;;11.63;6.57;;;;;;;6.19;67.24;101211.75;5036020;28;20232;-69
2023/01/27 12:04:23;;;;;;;9.77;5.67;;;;;;;6.12;67.92;101206.06;5039271;28;20724;-66
2023/01/27 12:06:55;;;;;;;10.50;6.10;;;;;;;6.07;67.88;101202.88;5035554;28;20219;-64
2023/01/27 12:09:34;;;;;;;12.57;6.40;;;;;;;6.03;68.25;101201.41;5034397;28;20270;-64
2023/01/27 12:12:20;;;;;;;10.57;5.93;;;;;;;6.03;68.65;101211.94;5034459;28;20212;-67
2023/01/27 12:14:49;;;;;;;11.03;5.97;;;;;;;6.01;69.38;101211.19;5038862;28;20677;-67